Ocean View, HI (96737)

7:46 PM HST on July 12, 2014 (GMT -1000)
Discovery Harbour Golf Course (KH6TA) (KHINAALE4) Elev 1298 ft | 19.04 °N, 155.64 °W | Change Station

Current weather conditions updated 10 minutes ago

Overcast
Overcast
72.7 °F
Feels Like 72.7 °F
N
7.3
Wind Variable Wind from SE

Tomorrow is forecast to be nearly the same temperature as today. Afternoon showers.

Today
High -- | Low -- °F
--% Chance of Precip.
Yesterday
High -- | Low -- °F
Precip. -- in
5:52 AM 7:04 PM
Full, 99% visible
Pressure 29.96 in
Visibility 10.0 miles
Clouds Overcast 5500 ft
Dew Point 71 °F
Humidity 95%
Rainfall 0.00 in
Snow Depth Not available.
UV 0 out of 12
Pollen Not available.
Air Quality Not available.
Flu Activity Sporadic
METAR PHKO 130453Z 27006KT 10SM OVC055 27/21 A2995 RMK AO2 SLP143 T02720211 $

More Conditions Fewer Conditions

Pressure 29.96 in
Visibility 10.0 miles
Clouds Overcast 5500 ft
Dew Point 71 °F
Humidity 95%
Rainfall 0.00 in
Snow Depth Not available.
UV 0 out of 12
Pollen Not available.
Air Quality Not available.
Flu Activity Sporadic
METAR PHKO 130453Z 27006KT 10SM OVC055 27/21 A2995 RMK AO2 SLP143 T02720211 $

More Conditions Fewer Conditions

10-Day Weather Forecast

Almanac

Astronomy

Jul. 12, 2014 Rise Set
Actual Time 5:52 AM HST 7:04 PM HST
Civil Twilight 5:28 AM HST 7:28 PM HST
Nautical Twilight 5:00 AM HST 7:56 PM HST
Astronomical Twilight 4:30 AM HST 8:26 PM HST
Moon 7:31 PM HST (7/12) 6:12 AM HST (7/12)
Length of Visible Light 13h 59m
Length of Day
13h 11m
Tomorrow will be 0m 30s shorter.
Full, 99% of the Moon is Illuminated
Jul 13
Full
Jul 18
Last Quarter
Jul 26
New
Aug 3
First Quarter
Aug 10
Full

Yesterday's Extremes

State Highs State Lows

Community

WunderPhotos

Upload Photos

1,733,114 photos uploaded!

Nearby

Snow Depth

Station Depth Elevation
No new snow has been reported.

Earthquake Activity

City Distance Mag. Time & Date
No recent earthquake activity has been reported nearby.
Minimum magnitude displayed is 2.5.

Coastal Water Temperatures

Place Temperature
No Stations Reporting

Nearby Weather Stations

Station Location Temp. Heat Index Dew Point Humidity Wind Precip. Elev Updated Type
Discovery Harbour Golf Course (KH6TA), Naalehu, HI 72.7 °F - 71 °F 95% SE  at  7.3 mph - / hr 1298 ft 7:36 PM HST Normal
Captain Cook, Captain Cook, HI 76.0 °F 77 °F 68 °F 77% WSW  at  2.0 mph 0.00 in / hr 915 ft 7:43 PM HST Normal

Show More Stations Show Fewer Stations